Visconde de Maua, Brazil
Current Conditions -  °F | °C
As of 8:00 PM on Thursday 18 Dec 2014 (Local Time) from SBGW Reporting Station
Thunderstorm Thunderstorm  
Wind Chill: 81°   Ceiling: 5000
Heat Index: 82°   Visibility: 6mi
Dew Point: 64°   Wind: 7mph
Humidity: 58%   Direction: 240°WSW
Pressure: 29.8"   Gusts: NA
Location:  22.47°S, 44.45°W
Report Text: SBGW 182200Z 24006KT 170V300 9999 TS VCSH SCT030 FEW033CB BKN050 27/18 Q1009
Loading
Personal Weather Stations






























Interactive Weather Map New forecast layout! Learn more

10-Day Weather Forecast

Advertisements
Track Severe Weather on mobile